Terminal Aerodrome Forecast
Issued by NWS Omaha/Valley, NE

Home | Current Version | Previous Version | Graphics & Text | Print | Product List | Glossary On
Versions: 1 2 3 4 5 6 7 8 9 10 11 12 13 14 15 16 17 18 19 20 21 22 23 24 25 26 27 28 29 30 31 32 33 34 35 36 37 38 39 40 41 42 43
000
FTUS43 KOAX 221139
TAFOFK
TAF
KOFK 221139Z 2212/2312 15015G23KT P6SM SCT025 OVC060
      TEMPO 2213/2217 BKN025
     FM230300 15015KT P6SM BKN015
     FM230600 17014G20KT P6SM -SHRA OVC007 PROB30 2308/2312
      VRB15G20KT 5SM -TSRA OVC007CB=

USA.gov is the U.S. government's official web portal to all federal, state and local government web resources and services.